Time;durP1;ratioP1;P1;durP2;ratioP2;P2;SDS_P1;SDS_P2;PMS_P1;PMS_P2;Temp;Humidity;BMP_temperature;BMP_pressure;BME280_temperature;BME280_humidity;BME280_pressure;Samples;Min_cycle;Max_cycle;Signal;HPM_P1;HPM_P2
2024/04/16 00:02:19;;;;;;;4.80;2.65;;;5.20;99.90;;;;;;5476993;26;20007;-75
2024/04/16 00:04:46;;;;;;;2.03;1.92;;;5.20;99.90;;;;;;5466842;26;20447;-75
2024/04/16 00:07:13;;;;;;;1.52;1.23;;;5.20;99.90;;;;;;5482953;26;20021;-75
2024/04/16 00:09:40;;;;;;;5.38;5.28;;;5.20;99.90;;;;;;5455955;26;20009;-75
2024/04/16 00:12:07;;;;;;;2.75;2.65;;;5.10;99.90;;;;;;5422015;26;20006;-75
2024/04/16 00:14:58;;;;;;;3.15;3.05;;;5.10;99.90;;;;;;5450913;26;20018;-75
2024/04/16 00:17:27;;;;;;;2.03;2.03;;;5.10;99.90;;;;;;5451874;26;19999;-74
2024/04/16 00:19:55;;;;;;;3.15;3.05;;;5.20;99.90;;;;;;5451818;26;20010;-75
2024/04/16 00:22:22;;;;;;;1.90;1.80;;;5.20;99.90;;;;;;5451439;26;20452;-75
2024/04/16 00:24:49;;;;;;;2.05;1.95;;;5.20;99.90;;;;;;5451723;26;19998;-75
2024/04/16 00:27:16;;;;;;;3.50;3.30;;;5.20;99.90;;;;;;5453293;26;19999;-75
2024/04/16 00:29:43;;;;;;;2.08;1.98;;;5.20;99.90;;;;;;5421913;26;20001;-75
2024/04/16 00:32:11;;;;;;;1.58;0.70;;;5.20;99.90;;;;;;5453225;26;20398;-75
2024/04/16 00:34:38;;;;;;;2.47;2.33;;;5.20;99.90;;;;;;5453425;26;20027;-75
2024/04/16 00:37:05;;;;;;;0.88;0.82;;;5.20;99.90;;;;;;5481728;26;20007;-75
2024/04/16 00:39:32;;;;;;;3.00;1.08;;;5.10;99.90;;;;;;5451801;26;19994;-75
2024/04/16 00:41:59;;;;;;;2.42;2.33;;;5.10;99.90;;;;;;5451599;26;19994;-75
2024/04/16 00:44:27;;;;;;;2.58;2.45;;;5.20;99.90;;;;;;5453232;26;20071;-75
2024/04/16 00:46:55;;;;;;;1.50;1.50;;;5.10;99.90;;;;;;5452048;26;20005;-75
2024/04/16 00:49:23;;;;;;;1.55;1.55;;;5.20;99.90;;;;;;5451625;26;19995;-75
2024/04/16 00:51:52;;;;;;;1.35;1.35;;;5.20;99.90;;;;;;5452375;26;20068;-75
2024/04/16 00:54:20;;;;;;;1.60;1.60;;;5.20;99.90;;;;;;5452428;26;20428;-75
2024/04/16 00:56:47;;;;;;;0.40;0.40;;;5.20;99.90;;;;;;5451492;26;20014;-75
2024/04/16 00:59:14;;;;;;;1.17;1.08;;;5.30;99.90;;;;;;5450974;26;19999;-75
2024/04/16 01:01:42;;;;;;;1.48;1.13;;;5.30;99.90;;;;;;5481730;26;20012;-75
2024/04/16 01:04:09;;;;;;;2.17;2.08;;;5.40;99.90;;;;;;5452707;26;20321;-75
2024/04/16 01:06:36;;;;;;;1.55;1.55;;;5.40;99.90;;;;;;5451294;26;20040;-75
2024/04/16 01:09:03;;;;;;;1.65;1.55;;;5.40;99.90;;;;;;5481354;26;20002;-75
2024/04/16 01:11:30;;;;;;;2.30;2.20;;;5.40;99.90;;;;;;5452590;26;20006;-75
2024/04/16 01:13:57;;;;;;;1.98;1.88;;;5.40;99.90;;;;;;5452921;26;20008;-75
2024/04/16 01:16:24;;;;;;;1.33;1.33;;;5.50;99.90;;;;;;5451078;26;20007;-75
2024/04/16 01:18:51;;;;;;;1.52;1.52;;;5.50;99.90;;;;;;5452978;26;20006;-75
2024/04/16 01:21:19;;;;;;;2.30;1.70;;;5.50;99.90;;;;;;5452923;26;19995;-75
2024/04/16 01:23:46;;;;;;;2.00;2.00;;;5.60;99.90;;;;;;5451123;26;20010;-75
2024/04/16 01:26:13;;;;;;;1.83;1.83;;;5.60;99.90;;;;;;5451047;26;20006;-75
2024/04/16 01:28:40;;;;;;;2.05;1.75;;;5.60;99.90;;;;;;5452770;26;19995;-74
2024/04/16 01:31:07;;;;;;;2.70;2.60;;;5.60;99.90;;;;;;5452422;26;19999;-75
2024/04/16 01:33:34;;;;;;;1.30;1.30;;;5.60;99.90;;;;;;5480824;26;20011;-75
2024/04/16 01:36:01;;;;;;;2.22;1.90;;;5.70;99.90;;;;;;5420977;26;20401;-75
2024/04/16 01:38:28;;;;;;;1.35;1.25;;;5.70;99.90;;;;;;5451918;26;20002;-74
2024/04/16 01:40:55;;;;;;;1.38;1.27;;;5.70;99.90;;;;;;5450484;26;20344;-75
2024/04/16 01:43:22;;;;;;;1.83;1.48;;;5.70;99.90;;;;;;5450244;26;20317;-75
2024/04/16 01:45:49;;;;;;;2.70;2.50;;;5.70;99.90;;;;;;5420796;26;20472;-75
2024/04/16 01:48:16;;;;;;;1.45;1.35;;;5.60;99.90;;;;;;5480502;26;20010;-75
2024/04/16 01:50:45;;;;;;;2.53;2.35;;;5.50;99.90;;;;;;5452183;26;19999;-75
2024/04/16 01:53:12;;;;;;;1.85;1.75;;;5.60;99.90;;;;;;5452236;26;19999;-75
2024/04/16 01:55:39;;;;;;;1.42;1.42;;;5.40;99.90;;;;;;5420884;26;20005;-75
2024/04/16 01:58:06;;;;;;;1.30;1.30;;;5.30;99.90;;;;;;5452287;26;20007;-74
2024/04/16 02:00:33;;;;;;;2.40;2.30;;;5.40;99.90;;;;;;5452250;26;20501;-75
2024/04/16 02:03:02;;;;;;;2.17;2.08;;;5.20;99.90;;;;;;5452394;26;19999;-75
2024/04/16 02:05:29;;;;;;;2.03;2.03;;;5.10;99.90;;;;;;5455611;26;19995;-75
2024/04/16 02:07:56;;;;;;;1.75;1.42;;;5.00;99.90;;;;;;5454073;26;19999;-75
2024/04/16 02:10:23;;;;;;;3.78;3.58;;;4.90;99.90;;;;;;5453221;26;20079;-75
2024/04/16 02:12:50;;;;;;;2.80;2.70;;;4.90;99.90;;;;;;5484133;26;20076;-75
2024/04/16 02:15:18;;;;;;;1.55;1.55;;;4.80;99.90;;;;;;5423552;26;20013;-75
2024/04/16 02:17:46;;;;;;;1.80;1.80;;;4.80;99.90;;;;;;5455473;26;20014;-75
2024/04/16 02:20:13;;;;;;;1.73;1.65;;;4.80;99.90;;;;;;5483931;26;20432;-75
2024/04/16 02:22:40;;;;;;;2.55;1.90;;;4.80;99.90;;;;;;5453514;26;19999;-75
2024/04/16 02:25:10;;;;;;;1.90;1.90;;;4.90;99.90;;;;;;5483696;26;20509;-75
2024/04/16 02:27:37;;;;;;;2.08;1.75;;;5.00;99.90;;;;;;5454953;26;19998;-74
2024/04/16 02:30:05;;;;;;;1.80;1.08;;;5.10;99.90;;;;;;5455080;26;20042;-74
2024/04/16 02:32:32;;;;;;;2.33;2.22;;;5.10;99.90;;;;;;5453456;26;19995;-75
2024/04/16 02:34:59;;;;;;;1.98;1.98;;;5.30;99.90;;;;;;5453704;26;19995;-75
2024/04/16 02:37:26;;;;;;;1.63;1.52;;;5.20;99.90;;;;;;5483664;26;20006;-75
2024/04/16 02:39:54;;;;;;;2.63;2.53;;;5.30;99.90;;;;;;5455074;26;20010;-75
2024/04/16 02:42:21;;;;;;;0.95;0.95;;;5.30;99.90;;;;;;5453334;26;19995;-75
2024/04/16 02:44:48;;;;;;;3.22;2.15;;;5.30;99.90;;;;;;5455412;26;19995;-75
2024/04/16 02:47:15;;;;;;;1.08;1.08;;;5.30;99.90;;;;;;5453461;26;20424;-75
2024/04/16 02:49:42;;;;;;;2.15;2.05;;;5.30;99.90;;;;;;5454603;26;20010;-75
2024/04/16 02:52:09;;;;;;;2.13;2.10;;;5.30;99.90;;;;;;5393919;26;20332;-75
2024/04/16 02:54:36;;;;;;;2.97;2.88;;;5.10;99.90;;;;;;5452799;26;20014;-75
2024/04/16 02:57:03;;;;;;;1.98;1.88;;;5.10;99.90;;;;;;5453097;26;20014;-75
2024/04/16 02:59:30;;;;;;;1.70;1.60;;;5.00;99.90;;;;;;5454363;26;19999;-75
2024/04/16 03:01:57;;;;;;;2.28;2.17;;;5.00;99.90;;;;;;5457008;26;20025;-75
2024/04/16 03:04:24;;;;;;;1.50;1.35;;;4.90;99.90;;;;;;5463058;26;20009;-75
2024/04/16 03:06:51;;;;;;;2.15;2.05;;;4.90;99.90;;;;;;5490557;26;20009;-74
2024/04/16 03:09:18;;;;;;;1.50;1.50;;;4.80;99.90;;;;;;5501787;26;20008;-75
2024/04/16 03:11:45;;;;;;;3.03;2.22;;;4.80;99.90;;;;;;5526639;25;19997;-75
2024/04/16 03:14:15;;;;;;;1.63;1.58;;;4.70;99.90;;;;;;5525433;26;20323;-75
2024/04/16 03:16:42;;;;;;;2.40;2.30;;;4.70;99.90;;;;;;5525970;26;20519;-74
2024/04/16 03:19:09;;;;;;;2.30;2.20;;;4.70;99.90;;;;;;5526270;26;20004;-75
2024/04/16 03:21:37;;;;;;;1.88;1.77;;;4.70;99.90;;;;;;5527600;25;20021;-74
2024/04/16 03:24:04;;;;;;;2.55;1.67;;;4.70;99.90;;;;;;5495477;26;19993;-74
2024/04/16 03:26:31;;;;;;;1.15;1.13;;;4.70;99.90;;;;;;5527547;25;19994;-74
2024/04/16 03:28:58;;;;;;;1.20;1.20;;;4.80;99.90;;;;;;5525718;26;19997;-74
2024/04/16 03:31:25;;;;;;;2.22;2.13;;;4.80;99.90;;;;;;5527399;25;20104;-74
2024/04/16 03:33:52;;;;;;;0.90;0.90;;;5.00;99.90;;;;;;5527644;25;20012;-74
2024/04/16 03:36:19;;;;;;;2.47;2.17;;;4.80;99.90;;;;;;5525850;26;20016;-74
2024/04/16 03:38:47;;;;;;;2.42;2.33;;;4.90;99.90;;;;;;5495054;26;19993;-74
2024/04/16 03:41:14;;;;;;;1.80;1.80;;;4.90;99.90;;;;;;5525600;26;20014;-74
2024/04/16 03:43:41;;;;;;;2.53;2.42;;;5.00;99.90;;;;;;5525609;26;19997;-75
2024/04/16 03:46:08;;;;;;;3.03;2.28;;;5.00;99.90;;;;;;5525801;26;20041;-74
2024/04/16 03:48:35;;;;;;;2.55;2.45;;;5.10;99.90;;;;;;5525343;26;19998;-75
2024/04/16 03:51:02;;;;;;;2.22;2.05;;;5.10;99.90;;;;;;5525979;26;20478;-74
2024/04/16 03:53:30;;;;;;;3.28;3.08;;;5.20;99.90;;;;;;5527044;25;20336;-74
2024/04/16 03:56:00;;;;;;;2.33;2.22;;;5.20;99.90;;;;;;5484301;26;20041;-74
2024/04/16 03:58:31;;;;;;;5.60;4.90;;;5.20;99.90;;;;;;5457165;26;20014;-74
2024/04/16 04:01:07;;;;;;;3.50;3.30;;;5.20;99.90;;;;;;5422047;26;19995;-74
2024/04/16 04:03:34;;;;;;;3.90;3.15;;;5.30;99.90;;;;;;5453765;26;19995;-74
2024/04/16 04:06:01;;;;;;;4.07;3.72;;;5.30;99.90;;;;;;5452075;26;19999;-74
2024/04/16 04:08:29;;;;;;;4.32;3.85;;;5.40;99.90;;;;;;5453840;26;20011;-74
2024/04/16 04:10:56;;;;;;;4.53;3.85;;;5.40;99.90;;;;;;5453690;26;20464;-74
2024/04/16 04:13:23;;;;;;;3.53;3.22;;;5.40;99.90;;;;;;5453775;26;20043;-74
2024/04/16 04:15:50;;;;;;;2.70;2.50;;;5.50;99.90;;;;;;5481934;26;20003;-74
2024/04/16 04:18:17;;;;;;;4.57;4.28;;;5.50;99.90;;;;;;5451923;26;20009;-74
2024/04/16 04:20:46;;;;;;;4.93;3.20;;;5.50;99.90;;;;;;5453417;26;19999;-75
2024/04/16 04:23:14;;;;;;;2.40;2.30;;;5.50;99.90;;;;;;5453835;26;20011;-74
2024/04/16 04:25:41;;;;;;;2.30;2.10;;;5.60;99.90;;;;;;5450263;26;20326;-74
2024/04/16 04:28:08;;;;;;;2.70;2.60;;;5.60;99.90;;;;;;5451735;26;20463;-74
2024/04/16 04:30:36;;;;;;;2.05;1.45;;;5.60;99.90;;;;;;5451860;26;19995;-74
2024/04/16 04:33:03;;;;;;;3.15;2.85;;;5.70;99.90;;;;;;5451877;26;19995;-74
2024/04/16 04:35:30;;;;;;;2.95;2.28;;;5.70;99.90;;;;;;5422293;26;19994;-74
2024/04/16 04:37:57;;;;;;;6.85;2.28;;;5.60;99.90;;;;;;5453904;26;20005;-75
2024/04/16 04:40:24;;;;;;;2.35;2.15;;;5.70;99.90;;;;;;5451941;26;20007;-75
2024/04/16 04:42:51;;;;;;;4.57;2.67;;;5.60;99.90;;;;;;5453503;26;20062;-74
2024/04/16 04:45:18;;;;;;;3.58;2.33;;;5.60;99.90;;;;;;5451421;26;19999;-75
2024/04/16 04:47:45;;;;;;;2.15;1.42;;;5.50;99.90;;;;;;5453179;26;20458;-74
2024/04/16 04:50:13;;;;;;;4.38;2.47;;;5.50;99.90;;;;;;5421570;26;20003;-74
2024/04/16 04:52:40;;;;;;;3.60;3.30;;;5.50;99.90;;;;;;5451033;26;20071;-74
2024/04/16 04:55:07;;;;;;;3.00;2.80;;;5.40;99.90;;;;;;5451379;26;19998;-74
2024/04/16 04:57:34;;;;;;;2.63;2.15;;;5.40;99.90;;;;;;5453072;26;20313;-73
2024/04/16 05:00:01;;;;;;;4.05;3.22;;;5.50;99.90;;;;;;5451226;26;19999;-74
2024/04/16 05:02:28;;;;;;;2.33;2.22;;;5.40;99.90;;;;;;5455568;26;20006;-73
2024/04/16 05:04:55;;;;;;;2.88;2.58;;;5.50;99.90;;;;;;5479923;26;20013;-74
2024/04/16 05:07:22;;;;;;;4.80;4.40;;;5.50;99.90;;;;;;5421105;26;19995;-73
2024/04/16 05:09:51;;;;;;;4.25;2.72;;;5.40;99.90;;;;;;5453010;26;20002;-73
2024/04/16 05:12:18;;;;;;;3.17;2.70;;;5.40;99.90;;;;;;5452905;26;20005;-73
2024/04/16 05:14:46;;;;;;;3.45;3.25;;;5.50;99.90;;;;;;5481253;26;19999;-73
2024/04/16 05:17:13;;;;;;;2.85;2.67;;;5.40;99.90;;;;;;5452867;26;19995;-73
2024/04/16 05:19:40;;;;;;;2.88;2.67;;;5.40;99.90;;;;;;5481186;26;20038;-73
2024/04/16 05:22:07;;;;;;;3.40;2.45;;;5.50;99.90;;;;;;5452962;26;20039;-73
2024/04/16 05:24:35;;;;;;;1.92;1.83;;;5.50;99.90;;;;;;5452870;26;20441;-73
2024/04/16 05:27:02;;;;;;;3.72;3.33;;;5.40;99.90;;;;;;5450676;26;20006;-73
2024/04/16 05:29:29;;;;;;;2.83;2.65;;;5.40;99.90;;;;;;5452700;26;20325;-73
2024/04/16 05:31:56;;;;;;;4.15;3.15;;;5.40;99.90;;;;;;5452200;26;19999;-73
2024/04/16 05:34:23;;;;;;;2.63;2.53;;;5.40;99.90;;;;;;5450861;26;20361;-74
2024/04/16 05:36:50;;;;;;;4.53;4.13;;;5.50;99.90;;;;;;5451643;26;20068;-73
2024/04/16 05:39:17;;;;;;;3.40;3.10;;;5.50;99.90;;;;;;5450773;26;20148;-74
2024/04/16 05:41:44;;;;;;;2.70;2.60;;;5.50;99.90;;;;;;5452119;26;20003;-75
2024/04/16 05:44:11;;;;;;;1.92;1.80;;;5.50;99.90;;;;;;5450740;26;20017;-73
2024/04/16 05:46:38;;;;;;;4.00;3.53;;;5.60;99.90;;;;;;5451098;26;19995;-74
2024/04/16 05:49:07;;;;;;;2.92;2.72;;;5.60;99.90;;;;;;5450587;26;20444;-74
2024/04/16 05:51:34;;;;;;;3.60;2.05;;;5.60;99.90;;;;;;5450878;26;20006;-74
2024/04/16 05:54:06;;;;;;;3.80;3.50;;;5.70;99.90;;;;;;5451718;26;19999;-74
2024/04/16 05:56:34;;;;;;;3.03;2.55;;;5.70;99.90;;;;;;5452389;26;19995;-74
2024/04/16 05:59:01;;;;;;;3.45;3.30;;;5.70;99.90;;;;;;5452058;26;19995;-74
2024/04/16 06:01:28;;;;;;;2.92;2.72;;;5.80;99.90;;;;;;5453703;26;20014;-74
2024/04/16 06:03:55;;;;;;;3.25;3.05;;;5.80;99.90;;;;;;5449647;26;20011;-74
2024/04/16 06:06:22;;;;;;;3.90;3.47;;;5.70;99.90;;;;;;5449224;26;20010;-74
2024/04/16 06:08:49;;;;;;;1.90;1.80;;;5.60;99.90;;;;;;5450680;26;20010;-74
2024/04/16 06:11:16;;;;;;;1.95;1.85;;;5.70;99.90;;;;;;5450205;26;20452;-74
2024/04/16 06:13:44;;;;;;;3.00;2.83;;;5.70;99.90;;;;;;5450398;26;20432;-74
2024/04/16 06:16:13;;;;;;;2.42;2.33;;;5.70;99.90;;;;;;5450343;26;20017;-74
2024/04/16 06:18:42;;;;;;;2.33;2.13;;;5.70;99.90;;;;;;5451779;26;19999;-74
2024/04/16 06:21:12;;;;;;;1.83;1.73;;;5.70;99.90;;;;;;5449741;26;20014;-76
2024/04/16 06:23:39;;;;;;;1.92;1.80;;;5.60;99.90;;;;;;5448967;26;20035;-75
2024/04/16 06:26:09;;;;;;;1.38;1.38;;;5.50;99.90;;;;;;5449081;26;20651;-75
2024/04/16 06:28:36;;;;;;;1.33;1.33;;;5.50;99.90;;;;;;5451938;26;20006;-75
2024/04/16 06:31:04;;;;;;;1.90;1.80;;;5.40;99.90;;;;;;5449492;26;19995;-74
2024/04/16 06:33:36;;;;;;;1.10;0.90;;;5.50;99.90;;;;;;5451727;26;19998;-75
2024/04/16 06:36:04;;;;;;;0.85;0.85;;;5.40;99.90;;;;;;5449860;26;20382;-75
2024/04/16 06:38:32;;;;;;;2.03;1.92;;;5.40;99.90;;;;;;5449762;26;20310;-75
2024/04/16 06:41:02;;;;;;;2.13;1.80;;;5.40;99.90;;;;;;5449541;26;19995;-75
2024/04/16 06:43:29;;;;;;;2.20;2.10;;;5.40;99.90;;;;;;5451248;26;19999;-75
2024/04/16 06:45:56;;;;;;;1.42;1.42;;;5.40;99.90;;;;;;5451117;26;20405;-75
2024/04/16 06:48:23;;;;;;;1.20;1.20;;;5.50;99.90;;;;;;5451356;26;20076;-75
2024/04/16 06:50:50;;;;;;;1.65;1.65;;;5.50;99.90;;;;;;5452471;26;20336;-75
2024/04/16 06:53:18;;;;;;;0.85;0.85;;;5.30;99.90;;;;;;5423414;26;20003;-74
2024/04/16 06:55:45;;;;;;;1.90;1.90;;;5.30;99.90;;;;;;5455061;26;20013;-75
2024/04/16 06:58:12;;;;;;;1.02;1.02;;;5.40;99.90;;;;;;5423117;26;20373;-75
2024/04/16 07:00:39;;;;;;;0.88;0.88;;;5.40;99.90;;;;;;5452995;26;19999;-74
2024/04/16 07:03:06;;;;;;;1.00;1.00;;;5.40;99.90;;;;;;5454386;26;20010;-75
2024/04/16 07:05:33;;;;;;;2.08;2.00;;;5.40;99.90;;;;;;5453049;26;19995;-75
2024/04/16 07:08:00;;;;;;;1.73;1.63;;;5.40;99.90;;;;;;5452727;26;19995;-75
2024/04/16 07:10:27;;;;;;;1.90;1.80;;;5.50;99.90;;;;;;5453038;26;20007;-75
2024/04/16 07:12:54;;;;;;;2.53;2.42;;;5.60;99.90;;;;;;5452536;26;20005;-75
2024/04/16 07:15:21;;;;;;;2.15;2.05;;;5.70;99.90;;;;;;5453055;26;20006;-75
2024/04/16 07:17:49;;;;;;;1.98;1.90;;;5.80;99.90;;;;;;5452862;26;19995;-75
2024/04/16 07:20:16;;;;;;;1.85;1.83;;;5.90;99.90;;;;;;5452430;26;20019;-75
2024/04/16 07:22:43;;;;;;;1.83;1.83;;;6.10;99.90;;;;;;5454321;26;19999;-75
2024/04/16 07:25:11;;;;;;;2.15;2.10;;;6.20;99.90;;;;;;5453903;26;20043;-75
2024/04/16 07:27:38;;;;;;;3.10;3.00;;;6.30;99.90;;;;;;5452950;26;20011;-74
2024/04/16 07:30:06;;;;;;;2.08;1.98;;;6.30;99.90;;;;;;5393190;26;20014;-74
2024/04/16 07:32:33;;;;;;;2.38;2.25;;;6.40;99.90;;;;;;5454366;26;20010;-75
2024/04/16 07:35:00;;;;;;;1.95;1.85;;;6.70;99.90;;;;;;5452344;26;19999;-73
2024/04/16 07:37:27;;;;;;;1.85;1.75;;;7.00;99.90;;;;;;5452685;26;20007;-74
2024/04/16 07:39:54;;;;;;;2.13;2.03;;;7.30;99.90;;;;;;5452639;26;20012;-73
2024/04/16 07:42:21;;;;;;;1.67;1.58;;;7.60;99.90;;;;;;5452521;26;20079;-74
2024/04/16 07:44:48;;;;;;;1.45;1.42;;;8.00;99.90;;;;;;5454334;26;20006;-74
2024/04/16 07:47:15;;;;;;;1.40;1.40;;;8.20;99.90;;;;;;5422421;26;19995;-74
2024/04/16 07:49:42;;;;;;;1.85;1.13;;;8.40;99.90;;;;;;5452622;26;20067;-74
2024/04/16 07:52:10;;;;;;;1.60;1.55;;;8.50;99.90;;;;;;5452074;26;19999;-74
2024/04/16 07:54:37;;;;;;;1.77;1.40;;;8.60;99.90;;;;;;5452595;26;19995;-74
2024/04/16 07:57:05;;;;;;;0.75;0.75;;;8.70;99.90;;;;;;5452399;26;20344;-74
2024/04/16 07:59:32;;;;;;;0.70;0.63;;;8.70;99.90;;;;;;5452376;26;20000;-74
2024/04/16 08:01:59;;;;;;;1.23;1.20;;;8.70;99.90;;;;;;5453255;26;20010;-75
2024/04/16 08:04:26;;;;;;;1.60;1.50;;;8.60;99.90;;;;;;5453962;26;20021;-75
2024/04/16 08:06:53;;;;;;;2.13;2.13;;;8.60;99.90;;;;;;5453890;26;19998;-75
2024/04/16 08:09:20;;;;;;;1.90;1.85;;;8.60;99.90;;;;;;5482190;26;19999;-75
2024/04/16 08:11:47;;;;;;;1.45;1.35;;;8.60;99.90;;;;;;5453742;26;19999;-75
2024/04/16 08:14:17;;;;;;;2.00;1.90;;;8.70;99.90;;;;;;5452059;26;19999;-75
2024/04/16 08:16:44;;;;;;;2.75;2.65;;;8.70;99.90;;;;;;5423264;26;20033;-75
2024/04/16 08:19:12;;;;;;;1.20;1.20;;;8.70;99.90;;;;;;5451819;26;20009;-75
2024/04/16 08:21:40;;;;;;;1.67;1.67;;;8.70;99.90;;;;;;5453666;26;20005;-74
2024/04/16 08:24:07;;;;;;;1.50;1.50;;;8.80;99.90;;;;;;5452078;26;20027;-75
2024/04/16 08:26:34;;;;;;;2.78;2.67;;;8.90;99.90;;;;;;5453798;26;19994;-74
2024/04/16 08:29:01;;;;;;;1.45;1.38;;;8.90;99.90;;;;;;5453900;26;19998;-75
2024/04/16 08:31:28;;;;;;;2.50;2.40;;;9.00;99.90;;;;;;5453715;26;20009;-74
2024/04/16 08:33:55;;;;;;;1.88;1.77;;;9.00;99.90;;;;;;5451677;26;20009;-74
2024/04/16 08:36:23;;;;;;;2.05;2.05;;;9.10;99.90;;;;;;5453267;26;19991;-74
2024/04/16 08:38:50;;;;;;;1.75;1.63;;;9.30;99.90;;;;;;5451936;26;20063;-74
2024/04/16 08:41:17;;;;;;;2.22;2.13;;;9.90;99.90;;;;;;5451492;26;20070;-75
2024/04/16 08:43:46;;;;;;;1.48;1.35;;;10.40;99.90;;;;;;5453397;26;19999;-75
2024/04/16 08:46:14;;;;;;;1.77;1.67;;;10.80;99.90;;;;;;5453062;26;20000;-74
2024/04/16 08:48:43;;;;;;;1.80;1.67;;;11.10;99.90;;;;;;5421759;26;19998;-75
2024/04/16 08:51:13;;;;;;;1.45;1.45;;;11.30;99.90;;;;;;5421824;26;19999;-75
2024/04/16 08:53:42;;;;;;;1.10;1.10;;;11.70;99.90;;;;;;5451369;26;20010;-75
2024/04/16 08:56:09;;;;;;;1.15;1.15;;;12.20;99.90;;;;;;5452955;26;19999;-75
2024/04/16 08:58:38;;;;;;;1.33;1.33;;;12.30;99.90;;;;;;5452829;26;20007;-75
2024/04/16 09:01:05;;;;;;;1.33;1.33;;;12.20;99.90;;;;;;5453151;26;20010;-75
2024/04/16 09:03:33;;;;;;;1.55;1.50;;;12.10;99.90;;;;;;5451850;26;19995;-75
2024/04/16 09:06:00;;;;;;;1.83;1.73;;;11.90;99.90;;;;;;5451370;26;20370;-75
2024/04/16 09:08:28;;;;;;;0.88;0.80;;;11.60;99.90;;;;;;5452894;26;19998;-75
2024/04/16 09:10:55;;;;;;;1.23;1.23;;;11.50;99.90;;;;;;5453082;26;20517;-75
2024/04/16 09:13:22;;;;;;;1.55;1.55;;;11.30;99.90;;;;;;5451502;26;19994;-75
2024/04/16 09:15:49;;;;;;;1.52;1.42;;;11.10;99.90;;;;;;5451206;26;20080;-75
2024/04/16 09:18:23;;;;;;;1.17;1.08;;;11.00;99.90;;;;;;5452720;26;20508;-75
2024/04/16 09:20:50;;;;;;;2.42;2.33;;;11.00;99.90;;;;;;5452853;26;20010;-75
2024/04/16 09:23:17;;;;;;;1.50;1.40;;;11.00;99.90;;;;;;5452529;26;20011;-75
2024/04/16 09:25:44;;;;;;;1.85;1.75;;;11.10;99.90;;;;;;5452814;26;19998;-75
2024/04/16 09:28:14;;;;;;;2.55;2.05;;;11.10;99.90;;;;;;5450771;26;20007;-75
2024/04/16 09:30:57;;;;;;;1.83;1.83;;;11.10;99.90;;;;;;5452746;26;20010;-75
2024/04/16 09:33:24;;;;;;;1.40;1.33;;;11.10;99.90;;;;;;5450785;26;20331;-76
2024/04/16 09:35:59;;;;;;;1.67;1.50;;;11.00;99.90;;;;;;5423315;26;20078;-75
2024/04/16 09:38:26;;;;;;;1.15;1.15;;;11.00;99.90;;;;;;5450465;26;20448;-75
2024/04/16 09:40:54;;;;;;;1.73;1.63;;;11.20;99.90;;;;;;5450884;26;20142;-75
2024/04/16 09:43:22;;;;;;;1.60;1.60;;;11.10;99.90;;;;;;5452385;26;20006;-75
2024/04/16 09:45:49;;;;;;;2.00;1.90;;;11.20;99.90;;;;;;5450946;26;20072;-75
2024/04/16 09:48:17;;;;;;;1.48;1.38;;;11.40;99.90;;;;;;5420765;26;20524;-75
2024/04/16 09:50:48;;;;;;;1.30;1.30;;;11.40;99.90;;;;;;5452445;26;20013;-75
2024/04/16 09:53:22;;;;;;;1.63;1.52;;;11.40;99.90;;;;;;5452349;26;20006;-75
2024/04/16 09:55:51;;;;;;;1.30;1.20;;;11.20;99.90;;;;;;5450471;26;19995;-75
2024/04/16 09:58:20;;;;;;;2.00;1.88;;;11.10;99.90;;;;;;5452042;26;20071;-75
2024/04/16 10:00:50;;;;;;;2.90;2.80;;;10.90;99.90;;;;;;5450299;26;19998;-75
2024/04/16 10:03:20;;;;;;;2.63;2.53;;;10.80;99.90;;;;;;5450201;26;19999;-75
2024/04/16 10:05:47;;;;;;;2.15;2.05;;;10.70;99.90;;;;;;5450405;26;20031;-75
2024/04/16 10:08:14;;;;;;;2.28;2.17;;;10.50;99.90;;;;;;5450043;26;20449;-75
2024/04/16 10:10:44;;;;;;;2.33;2.22;;;10.30;99.90;;;;;;5450286;26;20011;-75
2024/04/16 10:13:12;;;;;;;1.67;1.58;;;10.20;99.90;;;;;;5423861;26;19999;-75
2024/04/16 10:15:43;;;;;;;2.22;2.13;;;10.10;99.90;;;;;;5480451;26;20074;-75
2024/04/16 10:18:11;;;;;;;1.80;1.70;;;10.10;99.90;;;;;;5468262;26;20507;-75
2024/04/16 10:20:55;;;;;;;1.75;1.65;;;10.20;99.90;;;;;;5466154;26;19998;-75
2024/04/16 10:23:22;;;;;;;1.38;1.27;;;10.60;99.90;;;;;;5452505;26;20338;-75
2024/04/16 10:25:52;;;;;;;1.83;1.73;;;10.60;99.90;;;;;;5455330;26;19999;-75
2024/04/16 10:28:28;;;;;;;1.75;1.65;;;10.80;99.90;;;;;;5423577;26;20339;-75
2024/04/16 10:30:59;;;;;;;1.90;1.80;;;10.90;99.90;;;;;;5455694;26;20019;-75
2024/04/16 10:33:27;;;;;;;1.92;1.77;;;10.90;99.90;;;;;;5455189;26;20390;-75
2024/04/16 10:35:54;;;;;;;1.67;1.38;;;10.90;99.90;;;;;;5453408;26;20001;-75
2024/04/16 10:38:24;;;;;;;1.75;1.65;;;10.90;99.90;;;;;;5453118;26;20007;-75
2024/04/16 10:40:56;;;;;;;1.58;1.48;;;11.00;99.90;;;;;;5455086;26;20406;-75
2024/04/16 10:43:24;;;;;;;2.15;2.00;;;11.20;99.90;;;;;;5453052;26;20011;-75
2024/04/16 10:45:52;;;;;;;6.95;1.63;;;11.40;99.90;;;;;;5455079;26;20002;-76
2024/04/16 10:48:22;;;;;;;1.40;1.30;;;11.70;99.90;;;;;;5454638;26;20063;-76
2024/04/16 10:50:50;;;;;;;2.22;2.13;;;12.30;99.90;;;;;;5453170;26;20453;-76
2024/04/16 10:53:20;;;;;;;1.85;1.75;;;12.70;99.90;;;;;;5454755;26;20009;-75
2024/04/16 10:55:49;;;;;;;1.65;1.55;;;13.00;99.90;;;;;;5454921;26;20006;-76
2024/04/16 10:58:18;;;;;;;1.58;1.48;;;13.40;99.90;;;;;;5452945;26;19999;-75
2024/04/16 11:00:46;;;;;;;2.10;1.88;;;13.70;99.90;;;;;;5424986;26;20010;-76
2024/04/16 11:03:13;;;;;;;2.17;1.98;;;14.00;99.90;;;;;;5457577;26;20014;-76
2024/04/16 11:05:40;;;;;;;1.92;1.83;;;14.20;99.90;;;;;;5423214;26;19995;-75
2024/04/16 11:08:07;;;;;;;3.17;2.78;;;14.40;99.20;;;;;;5454627;26;19999;-76
2024/04/16 11:10:35;;;;;;;2.67;2.47;;;14.50;98.20;;;;;;5452632;26;20005;-75
2024/04/16 11:13:02;;;;;;;2.90;2.60;;;14.80;99.50;;;;;;5422823;26;20338;-76
2024/04/16 11:15:34;;;;;;;2.70;2.50;;;15.00;98.80;;;;;;5454666;26;20010;-76
2024/04/16 11:18:04;;;;;;;2.10;2.00;;;15.00;98.30;;;;;;5454429;26;20356;-76
2024/04/16 11:20:31;;;;;;;3.15;2.55;;;15.20;97.90;;;;;;5452362;26;19998;-75
2024/04/16 11:22:59;;;;;;;2.13;2.03;;;15.30;95.80;;;;;;5454184;26;20003;-75
2024/04/16 11:25:31;;;;;;;2.13;2.00;;;15.30;96.50;;;;;;5452323;26;20003;-75
2024/04/16 11:27:58;;;;;;;2.40;2.17;;;15.30;97.30;;;;;;5454206;26;20017;-75
2024/04/16 11:30:26;;;;;;;1.67;1.58;;;15.20;95.50;;;;;;5452357;26;20402;-75
2024/04/16 11:32:53;;;;;;;2.00;1.80;;;14.90;95.90;;;;;;5452381;26;20003;-75
2024/04/16 11:35:21;;;;;;;2.45;2.35;;;14.60;95.60;;;;;;5421704;26;20071;-75
2024/04/16 11:37:48;;;;;;;2.65;1.88;;;14.50;95.90;;;;;;5422354;26;20017;-75
2024/04/16 11:40:15;;;;;;;2.25;2.15;;;14.70;94.80;;;;;;5452397;26;19995;-75
2024/04/16 11:42:45;;;;;;;2.67;1.98;;;15.10;96.70;;;;;;5453890;26;19997;-75
2024/04/16 11:45:12;;;;;;;3.40;2.83;;;15.80;96.80;;;;;;5423362;26;19995;-75
2024/04/16 11:47:39;;;;;;;1.88;1.77;;;16.30;94.90;;;;;;5392446;26;19998;-76
2024/04/16 11:50:06;;;;;;;2.47;2.28;;;16.40;92.70;;;;;;5454339;26;20035;-75
2024/04/16 11:52:36;;;;;;;1.80;1.70;;;16.30;92.30;;;;;;5451857;26;20327;-76
2024/04/16 11:55:04;;;;;;;2.35;2.17;;;16.20;93.10;;;;;;5454058;26;20005;-76
2024/04/16 11:57:31;;;;;;;2.10;1.92;;;16.10;91.80;;;;;;5453468;26;19999;-76
2024/04/16 11:59:58;;;;;;;1.70;1.60;;;16.20;90.90;;;;;;5452026;26;20455;-76
2024/04/16 12:02:25;;;;;;;1.42;1.20;;;16.30;90.70;;;;;;5422340;26;20011;-76
2024/04/16 12:04:52;;;;;;;2.05;1.95;;;16.50;91.20;;;;;;5421825;26;19999;-76
2024/04/16 12:07:20;;;;;;;3.25;2.25;;;16.40;90.90;;;;;;5453719;26;20080;-76
2024/04/16 12:09:47;;;;;;;1.95;1.45;;;16.10;90.60;;;;;;5453441;26;20026;-76
2024/04/16 12:12:14;;;;;;;2.63;2.53;;;15.50;91.00;;;;;;5453689;26;20034;-75
2024/04/16 12:14:42;;;;;;;1.30;1.20;;;15.10;91.80;;;;;;5392331;26;20164;-76
2024/04/16 12:17:10;;;;;;;1.70;1.60;;;15.00;92.50;;;;;;5422314;26;19999;-76
2024/04/16 12:19:38;;;;;;;1.73;1.63;;;14.90;92.70;;;;;;5451973;26;19994;-76
2024/04/16 12:22:05;;;;;;;1.30;1.17;;;14.70;92.40;;;;;;5451825;26;20015;-76
2024/04/16 12:24:32;;;;;;;0.90;0.90;;;14.60;92.50;;;;;;5422184;26;20006;-76
2024/04/16 12:26:59;;;;;;;0.60;0.50;;;14.40;92.60;;;;;;5453489;26;20011;-76
2024/04/16 12:29:26;;;;;;;2.15;1.13;;;14.20;92.20;;;;;;5452067;26;20014;-76
2024/04/16 12:31:53;;;;;;;1.23;1.23;;;13.80;92.30;;;;;;5453211;26;19995;-76
2024/04/16 12:34:21;;;;;;;1.20;1.20;;;13.40;92.70;;;;;;5451860;26;19994;-76
2024/04/16 12:36:48;;;;;;;2.03;1.75;;;13.20;93.10;;;;;;5421272;26;19999;-76
2024/04/16 12:39:15;;;;;;;1.80;1.70;;;13.10;93.60;;;;;;5453347;26;20440;-76
2024/04/16 12:41:42;;;;;;;1.35;1.25;;;13.30;94.30;;;;;;5451233;26;19999;-76
2024/04/16 12:44:09;;;;;;;2.33;1.02;;;13.40;93.60;;;;;;5451475;26;20329;-76
2024/04/16 12:46:36;;;;;;;1.55;1.45;;;13.50;94.00;;;;;;5449939;26;20010;-76
2024/04/16 12:49:03;;;;;;;0.95;0.95;;;13.40;94.00;;;;;;5450933;26;20325;-76
2024/04/16 12:51:31;;;;;;;1.42;1.33;;;13.10;94.20;;;;;;5452971;26;19998;-77
2024/04/16 12:53:58;;;;;;;1.27;1.27;;;12.80;94.50;;;;;;5421211;26;20011;-76
2024/04/16 12:56:25;;;;;;;1.65;1.55;;;12.70;95.20;;;;;;5453018;26;19999;-76